sensor_id;sensor_type;location;lat;lon;timestamp;temperature;humidity
17994;DHT22;9122;48.406;9.984;2023-05-17T00:00:44;11.90;80.30
17994;DHT22;9122;48.406;9.984;2023-05-17T00:03:28;11.90;80.20
17994;DHT22;9122;48.406;9.984;2023-05-17T00:06:12;11.90;80.30
17994;DHT22;9122;48.406;9.984;2023-05-17T00:08:57;11.90;80.60
17994;DHT22;9122;48.406;9.984;2023-05-17T00:11:42;11.90;80.60
17994;DHT22;9122;48.406;9.984;2023-05-17T00:14:26;11.90;80.40
17994;DHT22;9122;48.406;9.984;2023-05-17T00:17:10;11.80;80.50
17994;DHT22;9122;48.406;9.984;2023-05-17T00:19:55;11.80;80.60
17994;DHT22;9122;48.406;9.984;2023-05-17T00:22:39;11.80;80.60
17994;DHT22;9122;48.406;9.984;2023-05-17T00:25:24;11.70;80.80
17994;DHT22;9122;48.406;9.984;2023-05-17T00:28:08;11.70;80.70
17994;DHT22;9122;48.406;9.984;2023-05-17T00:30:53;11.70;80.60
17994;DHT22;9122;48.406;9.984;2023-05-17T00:33:37;11.60;80.70
17994;DHT22;9122;48.406;9.984;2023-05-17T00:36:21;11.60;80.60
17994;DHT22;9122;48.406;9.984;2023-05-17T00:39:05;11.60;80.50
17994;DHT22;9122;48.406;9.984;2023-05-17T00:41:50;11.60;80.70
17994;DHT22;9122;48.406;9.984;2023-05-17T00:44:35;11.60;80.70
17994;DHT22;9122;48.406;9.984;2023-05-17T00:47:19;11.60;80.70
17994;DHT22;9122;48.406;9.984;2023-05-17T00:50:04;11.50;80.60
17994;DHT22;9122;48.406;9.984;2023-05-17T00:52:49;11.50;80.60
17994;DHT22;9122;48.406;9.984;2023-05-17T00:55:34;11.50;80.60
17994;DHT22;9122;48.406;9.984;2023-05-17T00:58:18;11.50;81.70
17994;DHT22;9122;48.406;9.984;2023-05-17T01:01:03;11.40;80.90
17994;DHT22;9122;48.406;9.984;2023-05-17T01:03:48;11.50;80.80
17994;DHT22;9122;48.406;9.984;2023-05-17T01:06:33;11.40;80.80
17994;DHT22;9122;48.406;9.984;2023-05-17T01:09:18;11.40;80.90
17994;DHT22;9122;48.406;9.984;2023-05-17T01:15:33;11.40;81.20
17994;DHT22;9122;48.406;9.984;2023-05-17T01:28:22;11.30;81.30
17994;DHT22;9122;48.406;9.984;2023-05-17T01:31:07;11.30;81.70
17994;DHT22;9122;48.406;9.984;2023-05-17T01:33:52;11.30;81.70
17994;DHT22;9122;48.406;9.984;2023-05-17T01:36:37;11.20;81.50
17994;DHT22;9122;48.406;9.984;2023-05-17T01:39:22;11.20;81.70
17994;DHT22;9122;48.406;9.984;2023-05-17T01:42:12;11.20;81.70
17994;DHT22;9122;48.406;9.984;2023-05-17T01:48:22;11.20;81.90
17994;DHT22;9122;48.406;9.984;2023-05-17T01:51:08;11.10;81.90
17994;DHT22;9122;48.406;9.984;2023-05-17T01:53:58;11.10;81.90
17994;DHT22;9122;48.406;9.984;2023-05-17T01:56:49;11.10;82.00
17994;DHT22;9122;48.406;9.984;2023-05-17T01:59:37;11.10;82.20
17994;DHT22;9122;48.406;9.984;2023-05-17T02:02:22;11.10;82.30
17994;DHT22;9122;48.406;9.984;2023-05-17T02:05:06;11.00;82.20
17994;DHT22;9122;48.406;9.984;2023-05-17T02:07:51;11.00;82.40
17994;DHT22;9122;48.406;9.984;2023-05-17T02:10:35;11.00;82.40
17994;DHT22;9122;48.406;9.984;2023-05-17T02:13:19;11.00;82.40
17994;DHT22;9122;48.406;9.984;2023-05-17T02:16:04;11.00;82.40
17994;DHT22;9122;48.406;9.984;2023-05-17T02:18:49;11.00;82.30
17994;DHT22;9122;48.406;9.984;2023-05-17T02:21:34;10.90;82.50
17994;DHT22;9122;48.406;9.984;2023-05-17T02:24:18;10.90;82.60
17994;DHT22;9122;48.406;9.984;2023-05-17T02:27:03;10.90;82.50
17994;DHT22;9122;48.406;9.984;2023-05-17T02:29:48;10.90;82.60
17994;DHT22;9122;48.406;9.984;2023-05-17T02:32:32;10.90;82.70
17994;DHT22;9122;48.406;9.984;2023-05-17T02:35:17;10.90;82.70
17994;DHT22;9122;48.406;9.984;2023-05-17T02:38:02;10.90;82.80
17994;DHT22;9122;48.406;9.984;2023-05-17T02:40:46;10.90;82.70
17994;DHT22;9122;48.406;9.984;2023-05-17T02:43:30;10.80;82.60
17994;DHT22;9122;48.406;9.984;2023-05-17T02:46:14;10.80;82.60
17994;DHT22;9122;48.406;9.984;2023-05-17T02:48:59;10.80;82.70
17994;DHT22;9122;48.406;9.984;2023-05-17T02:51:44;10.80;82.80
17994;DHT22;9122;48.406;9.984;2023-05-17T02:54:28;10.80;82.80
17994;DHT22;9122;48.406;9.984;2023-05-17T02:57:13;10.80;82.70
17994;DHT22;9122;48.406;9.984;2023-05-17T02:59:57;10.70;82.70
17994;DHT22;9122;48.406;9.984;2023-05-17T03:02:41;10.80;82.80
17994;DHT22;9122;48.406;9.984;2023-05-17T03:05:25;10.70;82.70
17994;DHT22;9122;48.406;9.984;2023-05-17T03:08:09;10.70;82.70
17994;DHT22;9122;48.406;9.984;2023-05-17T03:10:53;10.70;82.60
17994;DHT22;9122;48.406;9.984;2023-05-17T03:13:38;10.70;82.60
17994;DHT22;9122;48.406;9.984;2023-05-17T03:16:22;10.60;83.20
17994;DHT22;9122;48.406;9.984;2023-05-17T03:19:07;10.60;82.50
17994;DHT22;9122;48.406;9.984;2023-05-17T03:21:51;10.60;82.80
17994;DHT22;9122;48.406;9.984;2023-05-17T03:24:36;10.70;82.90
17994;DHT22;9122;48.406;9.984;2023-05-17T03:27:20;10.50;82.80
17994;DHT22;9122;48.406;9.984;2023-05-17T03:30:05;10.50;82.80
17994;DHT22;9122;48.406;9.984;2023-05-17T03:32:51;10.50;82.90
17994;DHT22;9122;48.406;9.984;2023-05-17T03:35:36;10.50;82.90
17994;DHT22;9122;48.406;9.984;2023-05-17T03:38:20;10.50;83.10
17994;DHT22;9122;48.406;9.984;2023-05-17T03:41:05;10.50;83.20
17994;DHT22;9122;48.406;9.984;2023-05-17T03:43:49;10.40;83.10
17994;DHT22;9122;48.406;9.984;2023-05-17T03:46:34;10.50;83.30
17994;DHT22;9122;48.406;9.984;2023-05-17T03:49:18;10.40;83.10
17994;DHT22;9122;48.406;9.984;2023-05-17T03:52:03;10.40;83.10
17994;DHT22;9122;48.406;9.984;2023-05-17T03:54:47;10.40;83.30
17994;DHT22;9122;48.406;9.984;2023-05-17T03:57:32;10.30;83.50
17994;DHT22;9122;48.406;9.984;2023-05-17T04:00:16;10.30;83.90
17994;DHT22;9122;48.406;9.984;2023-05-17T04:03:05;10.30;83.70
17994;DHT22;9122;48.406;9.984;2023-05-17T04:05:49;10.30;83.90
17994;DHT22;9122;48.406;9.984;2023-05-17T04:08:34;10.20;84.00
17994;DHT22;9122;48.406;9.984;2023-05-17T04:11:19;10.30;84.30
17994;DHT22;9122;48.406;9.984;2023-05-17T04:14:06;10.20;84.30
17994;DHT22;9122;48.406;9.984;2023-05-17T04:16:51;10.20;84.30
17994;DHT22;9122;48.406;9.984;2023-05-17T04:19:35;10.20;84.40
17994;DHT22;9122;48.406;9.984;2023-05-17T04:22:20;10.10;84.60
17994;DHT22;9122;48.406;9.984;2023-05-17T04:25:05;10.10;84.70
17994;DHT22;9122;48.406;9.984;2023-05-17T04:27:50;10.10;84.80
17994;DHT22;9122;48.406;9.984;2023-05-17T04:30:34;10.10;84.80
17994;DHT22;9122;48.406;9.984;2023-05-17T04:33:19;10.10;84.80
17994;DHT22;9122;48.406;9.984;2023-05-17T04:36:04;10.10;85.10
17994;DHT22;9122;48.406;9.984;2023-05-17T04:38:48;10.10;85.20
17994;DHT22;9122;48.406;9.984;2023-05-17T04:41:33;10.10;85.30
17994;DHT22;9122;48.406;9.984;2023-05-17T04:44:18;10.10;85.30
17994;DHT22;9122;48.406;9.984;2023-05-17T04:47:02;10.00;85.40
17994;DHT22;9122;48.406;9.984;2023-05-17T04:49:47;10.10;85.50
17994;DHT22;9122;48.406;9.984;2023-05-17T04:52:31;10.00;85.50
17994;DHT22;9122;48.406;9.984;2023-05-17T04:55:16;10.00;85.80
17994;DHT22;9122;48.406;9.984;2023-05-17T04:58:01;10.00;85.90
17994;DHT22;9122;48.406;9.984;2023-05-17T05:00:45;10.00;86.00
17994;DHT22;9122;48.406;9.984;2023-05-17T05:03:30;10.00;86.00
17994;DHT22;9122;48.406;9.984;2023-05-17T05:06:15;10.00;86.00
17994;DHT22;9122;48.406;9.984;2023-05-17T05:09:00;10.00;86.20
17994;DHT22;9122;48.406;9.984;2023-05-17T05:11:44;10.00;86.30
17994;DHT22;9122;48.406;9.984;2023-05-17T05:14:28;10.10;86.40
17994;DHT22;9122;48.406;9.984;2023-05-17T05:17:13;10.00;86.20
17994;DHT22;9122;48.406;9.984;2023-05-17T05:19:58;10.00;86.20
17994;DHT22;9122;48.406;9.984;2023-05-17T05:22:42;10.00;86.30
17994;DHT22;9122;48.406;9.984;2023-05-17T05:25:27;10.00;86.30
17994;DHT22;9122;48.406;9.984;2023-05-17T05:28:11;10.10;86.30
17994;DHT22;9122;48.406;9.984;2023-05-17T05:30:57;10.10;86.50
17994;DHT22;9122;48.406;9.984;2023-05-17T05:33:42;10.10;86.60
17994;DHT22;9122;48.406;9.984;2023-05-17T05:36:27;10.10;86.70
17994;DHT22;9122;48.406;9.984;2023-05-17T05:39:11;10.10;86.70
17994;DHT22;9122;48.406;9.984;2023-05-17T05:41:56;10.10;86.70
17994;DHT22;9122;48.406;9.984;2023-05-17T05:44:41;10.10;86.50
17994;DHT22;9122;48.406;9.984;2023-05-17T05:47:25;10.20;86.70
17994;DHT22;9122;48.406;9.984;2023-05-17T05:50:10;10.30;86.60
17994;DHT22;9122;48.406;9.984;2023-05-17T05:52:55;10.30;86.50
17994;DHT22;9122;48.406;9.984;2023-05-17T05:55:41;10.40;86.30
17994;DHT22;9122;48.406;9.984;2023-05-17T05:58:25;10.50;86.20
17994;DHT22;9122;48.406;9.984;2023-05-17T06:01:09;10.50;86.10
17994;DHT22;9122;48.406;9.984;2023-05-17T06:03:55;10.60;86.20
17994;DHT22;9122;48.406;9.984;2023-05-17T06:06:40;10.70;86.10
17994;DHT22;9122;48.406;9.984;2023-05-17T06:09:25;10.80;85.90
17994;DHT22;9122;48.406;9.984;2023-05-17T06:12:09;10.80;85.70
17994;DHT22;9122;48.406;9.984;2023-05-17T06:14:54;10.90;85.60
17994;DHT22;9122;48.406;9.984;2023-05-17T06:17:39;11.00;85.30
17994;DHT22;9122;48.406;9.984;2023-05-17T06:20:24;11.00;85.20
17994;DHT22;9122;48.406;9.984;2023-05-17T06:23:08;11.10;85.00
17994;DHT22;9122;48.406;9.984;2023-05-17T06:25:53;11.10;84.70
17994;DHT22;9122;48.406;9.984;2023-05-17T06:28:37;11.20;84.30
17994;DHT22;9122;48.406;9.984;2023-05-17T06:31:21;11.30;83.90
17994;DHT22;9122;48.406;9.984;2023-05-17T06:34:06;11.30;83.90
17994;DHT22;9122;48.406;9.984;2023-05-17T06:36:51;11.40;83.70
17994;DHT22;9122;48.406;9.984;2023-05-17T06:39:35;11.50;83.20
17994;DHT22;9122;48.406;9.984;2023-05-17T06:42:19;11.50;82.80
17994;DHT22;9122;48.406;9.984;2023-05-17T06:45:04;11.50;82.40
17994;DHT22;9122;48.406;9.984;2023-05-17T06:47:49;11.60;82.10
17994;DHT22;9122;48.406;9.984;2023-05-17T06:50:33;11.70;82.40
17994;DHT22;9122;48.406;9.984;2023-05-17T06:53:18;11.70;82.20
17994;DHT22;9122;48.406;9.984;2023-05-17T06:56:02;11.80;82.00
17994;DHT22;9122;48.406;9.984;2023-05-17T06:58:47;11.90;81.80
17994;DHT22;9122;48.406;9.984;2023-05-17T07:01:31;11.90;81.40
17994;DHT22;9122;48.406;9.984;2023-05-17T07:04:16;12.00;81.10
17994;DHT22;9122;48.406;9.984;2023-05-17T07:07:01;12.10;80.60
17994;DHT22;9122;48.406;9.984;2023-05-17T07:09:45;12.10;80.90
17994;DHT22;9122;48.406;9.984;2023-05-17T07:12:29;12.20;80.70
17994;DHT22;9122;48.406;9.984;2023-05-17T07:15:14;12.30;81.00
17994;DHT22;9122;48.406;9.984;2023-05-17T07:17:58;12.30;80.00
17994;DHT22;9122;48.406;9.984;2023-05-17T07:20:43;12.40;80.20
17994;DHT22;9122;48.406;9.984;2023-05-17T07:23:28;12.50;79.90
17994;DHT22;9122;48.406;9.984;2023-05-17T07:26:12;12.60;78.50
17994;DHT22;9122;48.406;9.984;2023-05-17T07:28:57;12.70;78.30
17994;DHT22;9122;48.406;9.984;2023-05-17T07:31:41;12.70;78.30
17994;DHT22;9122;48.406;9.984;2023-05-17T07:34:26;12.70;77.30
17994;DHT22;9122;48.406;9.984;2023-05-17T07:37:11;12.80;77.20
17994;DHT22;9122;48.406;9.984;2023-05-17T07:39:55;12.80;77.50
17994;DHT22;9122;48.406;9.984;2023-05-17T07:42:40;12.80;77.10
17994;DHT22;9122;48.406;9.984;2023-05-17T07:45:25;12.80;77.70
17994;DHT22;9122;48.406;9.984;2023-05-17T07:48:09;12.80;76.60
17994;DHT22;9122;48.406;9.984;2023-05-17T07:50:54;12.80;76.80
17994;DHT22;9122;48.406;9.984;2023-05-17T07:53:39;12.80;77.40
17994;DHT22;9122;48.406;9.984;2023-05-17T07:56:24;12.80;77.60
17994;DHT22;9122;48.406;9.984;2023-05-17T07:59:09;12.80;77.80
17994;DHT22;9122;48.406;9.984;2023-05-17T08:01:53;12.80;77.70
17994;DHT22;9122;48.406;9.984;2023-05-17T08:04:37;12.80;77.80
17994;DHT22;9122;48.406;9.984;2023-05-17T08:07:22;12.90;77.90
17994;DHT22;9122;48.406;9.984;2023-05-17T08:10:07;12.90;78.00
17994;DHT22;9122;48.406;9.984;2023-05-17T08:12:52;13.00;77.50
17994;DHT22;9122;48.406;9.984;2023-05-17T08:15:36;13.20;76.80
17994;DHT22;9122;48.406;9.984;2023-05-17T08:18:22;13.30;76.70
17994;DHT22;9122;48.406;9.984;2023-05-17T08:21:06;13.40;76.50
17994;DHT22;9122;48.406;9.984;2023-05-17T08:23:51;13.50;75.90
17994;DHT22;9122;48.406;9.984;2023-05-17T08:26:35;13.70;75.40
17994;DHT22;9122;48.406;9.984;2023-05-17T08:29:20;13.80;75.60
17994;DHT22;9122;48.406;9.984;2023-05-17T08:32:05;13.90;75.70
17994;DHT22;9122;48.406;9.984;2023-05-17T08:34:50;14.00;74.70
17994;DHT22;9122;48.406;9.984;2023-05-17T08:37:34;14.10;73.60
17994;DHT22;9122;48.406;9.984;2023-05-17T08:40:20;14.30;73.70
17994;DHT22;9122;48.406;9.984;2023-05-17T08:43:05;14.40;72.80
17994;DHT22;9122;48.406;9.984;2023-05-17T08:45:51;14.40;72.10
17994;DHT22;9122;48.406;9.984;2023-05-17T08:48:36;14.50;71.50
17994;DHT22;9122;48.406;9.984;2023-05-17T08:51:25;14.60;71.90
17994;DHT22;9122;48.406;9.984;2023-05-17T08:54:10;14.70;71.20
17994;DHT22;9122;48.406;9.984;2023-05-17T08:56:59;14.80;70.30
17994;DHT22;9122;48.406;9.984;2023-05-17T08:59:45;14.90;69.40
17994;DHT22;9122;48.406;9.984;2023-05-17T09:02:30;14.80;68.70
17994;DHT22;9122;48.406;9.984;2023-05-17T09:05:15;14.80;68.90
17994;DHT22;9122;48.406;9.984;2023-05-17T09:07:59;14.70;68.90
17994;DHT22;9122;48.406;9.984;2023-05-17T09:10:44;14.60;69.00
17994;DHT22;9122;48.406;9.984;2023-05-17T09:13:29;14.60;68.80
17994;DHT22;9122;48.406;9.984;2023-05-17T09:16:13;14.60;68.80
17994;DHT22;9122;48.406;9.984;2023-05-17T09:18:58;14.60;68.70
17994;DHT22;9122;48.406;9.984;2023-05-17T09:21:46;14.60;67.80
17994;DHT22;9122;48.406;9.984;2023-05-17T09:24:33;14.60;67.50
17994;DHT22;9122;48.406;9.984;2023-05-17T09:27:18;14.70;68.30
17994;DHT22;9122;48.406;9.984;2023-05-17T09:30:08;14.80;68.70
17994;DHT22;9122;48.406;9.984;2023-05-17T09:32:53;14.80;68.10
17994;DHT22;9122;48.406;9.984;2023-05-17T09:35:38;14.80;67.20
17994;DHT22;9122;48.406;9.984;2023-05-17T09:38:25;14.80;67.40
17994;DHT22;9122;48.406;9.984;2023-05-17T09:41:10;14.80;67.80
17994;DHT22;9122;48.406;9.984;2023-05-17T09:44:06;14.70;68.40
17994;DHT22;9122;48.406;9.984;2023-05-17T09:46:51;14.80;68.70
17994;DHT22;9122;48.406;9.984;2023-05-17T09:49:36;14.80;69.00
17994;DHT22;9122;48.406;9.984;2023-05-17T09:52:22;14.80;68.70
17994;DHT22;9122;48.406;9.984;2023-05-17T09:55:09;14.90;68.50
17994;DHT22;9122;48.406;9.984;2023-05-17T09:58:02;14.90;68.20
17994;DHT22;9122;48.406;9.984;2023-05-17T10:00:54;14.80;68.20
17994;DHT22;9122;48.406;9.984;2023-05-17T10:03:40;14.90;68.30
17994;DHT22;9122;48.406;9.984;2023-05-17T10:06:25;15.00;68.30
17994;DHT22;9122;48.406;9.984;2023-05-17T10:09:15;15.00;67.70
17994;DHT22;9122;48.406;9.984;2023-05-17T10:12:01;15.10;66.90
17994;DHT22;9122;48.406;9.984;2023-05-17T10:14:46;15.20;65.80
17994;DHT22;9122;48.406;9.984;2023-05-17T10:17:31;15.20;66.10
17994;DHT22;9122;48.406;9.984;2023-05-17T10:20:16;15.30;66.50
17994;DHT22;9122;48.406;9.984;2023-05-17T10:23:01;15.30;65.90
17994;DHT22;9122;48.406;9.984;2023-05-17T10:25:49;15.30;66.00
17994;DHT22;9122;48.406;9.984;2023-05-17T10:28:35;15.30;66.20
17994;DHT22;9122;48.406;9.984;2023-05-17T10:31:20;15.30;66.80
17994;DHT22;9122;48.406;9.984;2023-05-17T10:34:05;15.40;65.80
17994;DHT22;9122;48.406;9.984;2023-05-17T10:36:51;15.50;65.30
17994;DHT22;9122;48.406;9.984;2023-05-17T10:39:36;15.60;65.50
17994;DHT22;9122;48.406;9.984;2023-05-17T10:42:21;15.70;64.60
17994;DHT22;9122;48.406;9.984;2023-05-17T10:45:06;15.80;63.70
17994;DHT22;9122;48.406;9.984;2023-05-17T10:47:52;15.80;63.10
17994;DHT22;9122;48.406;9.984;2023-05-17T10:50:38;15.80;62.10
17994;DHT22;9122;48.406;9.984;2023-05-17T10:53:23;15.90;61.40
17994;DHT22;9122;48.406;9.984;2023-05-17T10:56:07;15.90;62.00
17994;DHT22;9122;48.406;9.984;2023-05-17T11:02:06;16.00;61.40
17994;DHT22;9122;48.406;9.984;2023-05-17T11:04:51;16.00;62.10
17994;DHT22;9122;48.406;9.984;2023-05-17T11:07:37;16.00;62.30
17994;DHT22;9122;48.406;9.984;2023-05-17T11:10:21;15.90;62.10
17994;DHT22;9122;48.406;9.984;2023-05-17T11:13:21;15.90;62.60
17994;DHT22;9122;48.406;9.984;2023-05-17T11:16:08;15.90;63.00
17994;DHT22;9122;48.406;9.984;2023-05-17T11:18:54;15.90;63.20
17994;DHT22;9122;48.406;9.984;2023-05-17T11:21:47;16.00;62.80
17994;DHT22;9122;48.406;9.984;2023-05-17T11:24:32;16.00;62.30
17994;DHT22;9122;48.406;9.984;2023-05-17T11:27:21;16.10;62.70
17994;DHT22;9122;48.406;9.984;2023-05-17T11:33:09;16.00;61.70
17994;DHT22;9122;48.406;9.984;2023-05-17T11:35:54;16.00;62.50
17994;DHT22;9122;48.406;9.984;2023-05-17T11:38:39;16.00;62.90
17994;DHT22;9122;48.406;9.984;2023-05-17T11:41:23;16.10;63.20
17994;DHT22;9122;48.406;9.984;2023-05-17T11:44:08;16.10;63.20
17994;DHT22;9122;48.406;9.984;2023-05-17T11:47:19;16.20;62.70
17994;DHT22;9122;48.406;9.984;2023-05-17T11:50:05;16.30;62.70
17994;DHT22;9122;48.406;9.984;2023-05-17T11:52:52;16.40;61.80
17994;DHT22;9122;48.406;9.984;2023-05-17T11:55:46;16.40;61.30
17994;DHT22;9122;48.406;9.984;2023-05-17T11:58:31;16.40;60.80
17994;DHT22;9122;48.406;9.984;2023-05-17T12:01:15;16.40;60.90
17994;DHT22;9122;48.406;9.984;2023-05-17T12:04:00;16.40;61.70
17994;DHT22;9122;48.406;9.984;2023-05-17T12:06:45;16.50;61.30
17994;DHT22;9122;48.406;9.984;2023-05-17T12:09:30;16.50;60.50
17994;DHT22;9122;48.406;9.984;2023-05-17T12:12:14;16.50;60.40
17994;DHT22;9122;48.406;9.984;2023-05-17T12:14:59;16.50;60.30
17994;DHT22;9122;48.406;9.984;2023-05-17T12:17:44;16.50;61.00
17994;DHT22;9122;48.406;9.984;2023-05-17T12:20:29;16.50;62.00
17994;DHT22;9122;48.406;9.984;2023-05-17T12:23:16;16.50;62.00
17994;DHT22;9122;48.406;9.984;2023-05-17T12:26:11;16.60;62.40
17994;DHT22;9122;48.406;9.984;2023-05-17T12:28:58;16.60;62.80
17994;DHT22;9122;48.406;9.984;2023-05-17T12:31:50;16.50;63.40
17994;DHT22;9122;48.406;9.984;2023-05-17T12:34:35;16.50;63.80
17994;DHT22;9122;48.406;9.984;2023-05-17T12:37:20;16.50;63.50
17994;DHT22;9122;48.406;9.984;2023-05-17T12:40:06;16.40;63.70
17994;DHT22;9122;48.406;9.984;2023-05-17T12:43:00;16.40;63.70
17994;DHT22;9122;48.406;9.984;2023-05-17T12:45:46;16.40;63.10
17994;DHT22;9122;48.406;9.984;2023-05-17T12:48:35;16.40;63.10
17994;DHT22;9122;48.406;9.984;2023-05-17T12:51:21;16.30;62.00
17994;DHT22;9122;48.406;9.984;2023-05-17T12:54:05;16.30;62.70
17994;DHT22;9122;48.406;9.984;2023-05-17T12:56:51;16.30;63.20
17994;DHT22;9122;48.406;9.984;2023-05-17T12:59:48;16.30;63.30
17994;DHT22;9122;48.406;9.984;2023-05-17T13:02:32;16.20;63.20
17994;DHT22;9122;48.406;9.984;2023-05-17T13:05:18;16.20;62.90
17994;DHT22;9122;48.406;9.984;2023-05-17T13:08:19;16.20;62.40
17994;DHT22;9122;48.406;9.984;2023-05-17T13:11:13;16.20;61.20
17994;DHT22;9122;48.406;9.984;2023-05-17T13:13:57;16.30;62.30
17994;DHT22;9122;48.406;9.984;2023-05-17T13:16:45;16.20;63.50
17994;DHT22;9122;48.406;9.984;2023-05-17T13:19:34;16.20;63.80
17994;DHT22;9122;48.406;9.984;2023-05-17T13:22:21;16.20;64.40
17994;DHT22;9122;48.406;9.984;2023-05-17T13:25:07;16.20;64.50
17994;DHT22;9122;48.406;9.984;2023-05-17T13:27:51;16.20;64.30
17994;DHT22;9122;48.406;9.984;2023-05-17T13:30:38;16.20;64.30
17994;DHT22;9122;48.406;9.984;2023-05-17T13:33:22;16.20;63.70
17994;DHT22;9122;48.406;9.984;2023-05-17T13:36:07;16.20;62.60
17994;DHT22;9122;48.406;9.984;2023-05-17T13:38:52;16.20;62.80
17994;DHT22;9122;48.406;9.984;2023-05-17T13:41:36;16.20;63.90
17994;DHT22;9122;48.406;9.984;2023-05-17T13:44:21;16.20;64.10
17994;DHT22;9122;48.406;9.984;2023-05-17T13:47:06;16.20;64.90
17994;DHT22;9122;48.406;9.984;2023-05-17T13:49:50;16.30;65.10
17994;DHT22;9122;48.406;9.984;2023-05-17T13:52:35;16.30;64.30
17994;DHT22;9122;48.406;9.984;2023-05-17T13:55:19;16.20;64.00
17994;DHT22;9122;48.406;9.984;2023-05-17T13:58:04;16.20;63.50
17994;DHT22;9122;48.406;9.984;2023-05-17T14:00:48;16.30;62.80
17994;DHT22;9122;48.406;9.984;2023-05-17T14:03:33;16.20;63.40
17994;DHT22;9122;48.406;9.984;2023-05-17T14:06:18;16.20;64.00
17994;DHT22;9122;48.406;9.984;2023-05-17T14:09:02;16.20;64.50
17994;DHT22;9122;48.406;9.984;2023-05-17T14:11:47;16.20;64.70
17994;DHT22;9122;48.406;9.984;2023-05-17T14:14:31;16.20;64.60
17994;DHT22;9122;48.406;9.984;2023-05-17T14:17:16;16.20;64.80
17994;DHT22;9122;48.406;9.984;2023-05-17T14:20:00;16.10;65.50
17994;DHT22;9122;48.406;9.984;2023-05-17T14:22:44;16.10;65.70
17994;DHT22;9122;48.406;9.984;2023-05-17T14:25:29;16.00;66.10
17994;DHT22;9122;48.406;9.984;2023-05-17T14:28:14;16.00;66.40
17994;DHT22;9122;48.406;9.984;2023-05-17T14:31:01;16.00;66.60
17994;DHT22;9122;48.406;9.984;2023-05-17T14:33:45;16.00;66.80
17994;DHT22;9122;48.406;9.984;2023-05-17T14:36:30;15.90;67.40
17994;DHT22;9122;48.406;9.984;2023-05-17T14:39:16;15.90;67.90
17994;DHT22;9122;48.406;9.984;2023-05-17T14:42:01;15.80;68.20
17994;DHT22;9122;48.406;9.984;2023-05-17T14:44:45;15.80;68.90
17994;DHT22;9122;48.406;9.984;2023-05-17T14:47:30;15.80;69.30
17994;DHT22;9122;48.406;9.984;2023-05-17T14:50:14;15.80;69.50
17994;DHT22;9122;48.406;9.984;2023-05-17T14:52:59;15.80;70.10
17994;DHT22;9122;48.406;9.984;2023-05-17T14:55:44;15.80;70.50
17994;DHT22;9122;48.406;9.984;2023-05-17T14:58:28;15.80;70.30
17994;DHT22;9122;48.406;9.984;2023-05-17T15:01:13;15.80;70.00
17994;DHT22;9122;48.406;9.984;2023-05-17T15:03:58;15.70;70.20
17994;DHT22;9122;48.406;9.984;2023-05-17T15:06:43;15.70;70.60
17994;DHT22;9122;48.406;9.984;2023-05-17T15:09:27;15.70;70.10
17994;DHT22;9122;48.406;9.984;2023-05-17T15:12:13;15.70;69.70
17994;DHT22;9122;48.406;9.984;2023-05-17T15:14:58;15.70;69.70
17994;DHT22;9122;48.406;9.984;2023-05-17T15:17:43;15.70;70.00
17994;DHT22;9122;48.406;9.984;2023-05-17T15:20:28;15.60;70.10
17994;DHT22;9122;48.406;9.984;2023-05-17T15:23:13;15.60;70.30
17994;DHT22;9122;48.406;9.984;2023-05-17T15:25:57;15.60;70.30
17994;DHT22;9122;48.406;9.984;2023-05-17T15:28:42;15.60;70.70
17994;DHT22;9122;48.406;9.984;2023-05-17T15:31:27;15.60;70.70
17994;DHT22;9122;48.406;9.984;2023-05-17T15:34:12;15.60;70.70
17994;DHT22;9122;48.406;9.984;2023-05-17T15:36:56;15.60;70.40
17994;DHT22;9122;48.406;9.984;2023-05-17T15:39:41;15.60;70.00
17994;DHT22;9122;48.406;9.984;2023-05-17T15:42:25;15.60;69.90
17994;DHT22;9122;48.406;9.984;2023-05-17T15:45:10;15.60;69.80
17994;DHT22;9122;48.406;9.984;2023-05-17T15:47:55;15.50;69.50
17994;DHT22;9122;48.406;9.984;2023-05-17T15:50:40;15.50;70.10
17994;DHT22;9122;48.406;9.984;2023-05-17T15:53:26;15.50;70.50
17994;DHT22;9122;48.406;9.984;2023-05-17T15:56:11;15.40;70.40
17994;DHT22;9122;48.406;9.984;2023-05-17T15:58:55;15.40;70.40
17994;DHT22;9122;48.406;9.984;2023-05-17T16:01:40;15.40;70.70
17994;DHT22;9122;48.406;9.984;2023-05-17T16:04:25;15.30;70.50
17994;DHT22;9122;48.406;9.984;2023-05-17T16:07:10;15.30;70.80
17994;DHT22;9122;48.406;9.984;2023-05-17T16:09:57;15.20;70.90
17994;DHT22;9122;48.406;9.984;2023-05-17T16:12:42;15.20;70.80
17994;DHT22;9122;48.406;9.984;2023-05-17T16:15:27;15.10;70.60
17994;DHT22;9122;48.406;9.984;2023-05-17T16:18:11;15.10;70.60
17994;DHT22;9122;48.406;9.984;2023-05-17T16:21:02;15.10;70.70
17994;DHT22;9122;48.406;9.984;2023-05-17T16:23:47;15.10;70.90
17994;DHT22;9122;48.406;9.984;2023-05-17T16:26:33;15.00;71.20
17994;DHT22;9122;48.406;9.984;2023-05-17T16:29:18;15.00;71.30
17994;DHT22;9122;48.406;9.984;2023-05-17T16:32:03;15.00;71.00
17994;DHT22;9122;48.406;9.984;2023-05-17T16:34:47;15.00;70.80
17994;DHT22;9122;48.406;9.984;2023-05-17T16:37:32;15.00;70.60
17994;DHT22;9122;48.406;9.984;2023-05-17T16:40:17;14.90;70.90
17994;DHT22;9122;48.406;9.984;2023-05-17T16:43:01;14.90;71.40
17994;DHT22;9122;48.406;9.984;2023-05-17T16:45:46;14.90;72.00
17994;DHT22;9122;48.406;9.984;2023-05-17T16:48:30;14.80;72.40
17994;DHT22;9122;48.406;9.984;2023-05-17T16:51:15;14.80;72.40
17994;DHT22;9122;48.406;9.984;2023-05-17T16:53:59;14.80;72.50
17994;DHT22;9122;48.406;9.984;2023-05-17T16:56:43;14.80;72.00
17994;DHT22;9122;48.406;9.984;2023-05-17T16:59:28;14.80;71.30
17994;DHT22;9122;48.406;9.984;2023-05-17T17:02:13;14.70;71.20
17994;DHT22;9122;48.406;9.984;2023-05-17T17:04:57;14.70;70.80
17994;DHT22;9122;48.406;9.984;2023-05-17T17:07:42;14.70;70.80
17994;DHT22;9122;48.406;9.984;2023-05-17T17:10:29;14.60;70.90
17994;DHT22;9122;48.406;9.984;2023-05-17T17:13:13;14.60;71.10
17994;DHT22;9122;48.406;9.984;2023-05-17T17:15:59;14.60;71.40
17994;DHT22;9122;48.406;9.984;2023-05-17T17:18:44;14.60;71.40
17994;DHT22;9122;48.406;9.984;2023-05-17T17:21:30;14.50;72.30
17994;DHT22;9122;48.406;9.984;2023-05-17T17:24:19;14.50;71.90
17994;DHT22;9122;48.406;9.984;2023-05-17T17:27:04;14.40;72.20
17994;DHT22;9122;48.406;9.984;2023-05-17T17:29:49;14.40;72.50
17994;DHT22;9122;48.406;9.984;2023-05-17T17:32:33;14.80;72.90
17994;DHT22;9122;48.406;9.984;2023-05-17T17:35:17;14.30;71.90
17994;DHT22;9122;48.406;9.984;2023-05-17T17:38:02;14.30;71.80
17994;DHT22;9122;48.406;9.984;2023-05-17T17:40:47;14.30;71.80
17994;DHT22;9122;48.406;9.984;2023-05-17T17:43:32;14.20;71.80
17994;DHT22;9122;48.406;9.984;2023-05-17T17:46:18;14.20;71.80
17994;DHT22;9122;48.406;9.984;2023-05-17T17:49:02;14.20;71.60
17994;DHT22;9122;48.406;9.984;2023-05-17T17:51:46;14.20;71.80
17994;DHT22;9122;48.406;9.984;2023-05-17T17:54:31;14.10;71.80
17994;DHT22;9122;48.406;9.984;2023-05-17T17:57:15;14.10;71.80
17994;DHT22;9122;48.406;9.984;2023-05-17T18:00:02;14.10;71.60
17994;DHT22;9122;48.406;9.984;2023-05-17T18:02:47;14.00;71.50